Ponca, Nebraska
Current Conditions -  °F | °C
As of 5:52 AM on Thursday 29 Jan 2015 (Local Time) from KSUX Reporting Station
Overcast Overcast  
Wind Chill: 20°   Ceiling: 4200
Heat Index: 34°   Visibility: 10mi
Dew Point: 27°   Wind: 32mph
Humidity: 75%   Direction: 330°NNW
Pressure: 30.2"   Gusts: 41mph
Location:  42.56°N, 96.71°W
Report Text: KSUX 291152Z AUTO 33028G36KT 10SM FEW022 OVC042 01/M03 A3020 RMK AO2 PK WND 33036/1151 SLP238 60000 T00111028 10028 20011 53027
Loading
Personal Weather Stations






























Interactive Weather Map New forecast layout! Learn more

10-Day Weather Forecast

Advertisements
Track Severe Weather on mobile